Time;durP1;ratioP1;P1;durP2;ratioP2;P2;SDS_P1;SDS_P2;PMS_P1;PMS_P2;Temp;Humidity;BMP_temperature;BMP_pressure;BME280_temperature;BME280_humidity;BME280_pressure;Samples;Min_cycle;Max_cycle;Signal;HPM_P1;HPM_P2
2023/06/23 00:01:20;;;;;;;2.40;1.77;;;19.40;99.90;;;;;;5094713;28;20572;-49
2023/06/23 00:03:46;;;;;;;2.67;2.27;;;19.30;99.90;;;;;;5093417;28;20900;-49
2023/06/23 00:06:13;;;;;;;2.23;1.93;;;19.30;1.00;;;;;;5074398;28;20681;-48
2023/06/23 00:08:41;;;;;;;2.37;1.80;;;19.30;1.00;;;;;;5092386;28;20836;-48
2023/06/23 00:11:08;;;;;;;2.60;2.20;;;19.30;1.00;;;;;;5093437;28;20514;-48
2023/06/23 00:13:34;;;;;;;3.10;2.80;;;19.20;1.00;;;;;;5093190;28;20440;-51
2023/06/23 00:16:04;;;;;;;2.17;1.97;;;19.30;21.90;;;;;;5093172;28;20419;-48
2023/06/23 00:18:39;;;;;;;2.30;2.10;;;19.30;50.50;;;;;;5093236;28;20414;-51
2023/06/23 00:21:08;;;;;;;3.73;2.00;;;19.30;99.90;;;;;;5094655;28;20461;-48
2023/06/23 00:23:34;;;;;;;2.60;2.30;;;19.20;99.90;;;;;;5094225;28;20419;-49
2023/06/23 00:26:01;;;;;;;2.73;2.07;;;19.00;99.90;;;;;;5075606;28;20434;-51
2023/06/23 00:28:27;;;;;;;5.10;2.47;;;19.10;99.90;;;;;;5093264;28;20458;-45
2023/06/23 00:30:55;;;;;;;4.40;2.57;;;19.10;99.90;;;;;;5094047;28;20729;-47
2023/06/23 00:33:21;;;;;;;3.97;2.30;;;19.10;99.90;;;;;;5077614;28;20516;-44
2023/06/23 00:35:47;;;;;;;2.63;2.37;;;18.80;99.90;;;;;;5077016;28;20434;-48
2023/06/23 00:38:13;;;;;;;2.60;2.40;;;18.90;99.90;;;;;;5095204;28;20269;-51
2023/06/23 00:40:42;;;;;;;2.63;2.43;;;19.00;99.90;;;;;;5096003;28;20275;-44
2023/06/23 00:43:08;;;;;;;2.73;2.40;;;19.10;99.90;;;;;;5095430;28;20420;-46
2023/06/23 00:45:33;;;;;;;2.60;2.07;;;19.10;99.90;;;;;;5096039;28;20834;-49
2023/06/23 00:48:01;;;;;;;3.33;2.73;;;19.10;99.90;;;;;;5095866;28;20279;-52
2023/06/23 00:50:27;;;;;;;2.83;2.40;;;18.90;99.90;;;;;;5095460;28;20552;-49
2023/06/23 00:52:53;;;;;;;2.87;2.33;;;18.90;99.90;;;;;;5095774;28;20478;-50
2023/06/23 00:55:23;;;;;;;3.63;2.07;;;18.80;99.90;;;;;;5077898;28;20523;-47
2023/06/23 00:57:50;;;;;;;2.60;2.40;;;18.80;99.90;;;;;;5076156;28;20505;-46
2023/06/23 01:00:18;;;;;;;2.50;2.30;;;18.80;99.90;;;;;;5078060;28;20576;-49
2023/06/23 01:02:51;;;;;;;2.93;2.40;;;18.80;99.90;;;;;;5095940;28;20873;-46
2023/06/23 01:05:18;;;;;;;4.60;2.87;;;18.80;99.90;;;;;;5095357;28;20442;-48
2023/06/23 01:08:03;;;;;;;2.43;2.23;;;18.60;99.90;;;;;;5094492;28;20755;-47
2023/06/23 01:11:02;;;;;;;3.20;2.37;;;18.60;1.00;;;;;;5094016;28;20425;-47
2023/06/23 01:13:53;;;;;;;3.03;2.80;;;18.70;99.90;;;;;;5072162;28;20773;-46
2023/06/23 01:16:27;;;;;;;2.50;2.30;;;18.70;99.90;;;;;;5091388;28;20433;-46
2023/06/23 01:19:04;;;;;;;3.30;3.00;;;18.60;1.00;;;;;;5090529;28;20695;-47
2023/06/23 01:21:39;;;;;;;3.70;3.40;;;18.50;99.90;;;;;;5090252;28;20480;-47
2023/06/23 01:24:22;;;;;;;4.93;4.00;;;18.40;99.90;;;;;;5072799;28;20449;-48
2023/06/23 01:27:09;;;;;;;3.70;3.40;;;18.30;99.90;;;;;;5092712;28;20426;-49
2023/06/23 01:29:36;;;;;;;4.80;3.73;;;18.20;99.90;;;;;;5076565;28;20437;-49
2023/06/23 01:32:16;;;;;;;3.70;3.40;;;17.90;99.90;;;;;;5080503;28;20422;-50
2023/06/23 01:34:47;;;;;;;4.73;4.33;;;17.70;1.00;;;;;;5080858;28;20433;-47
2023/06/23 01:37:19;;;;;;;5.10;4.67;;;17.70;1.00;;;;;;5098132;28;20758;-48
2023/06/23 01:39:52;;;;;;;5.43;4.83;;;17.70;1.00;;;;;;5081071;28;20466;-47
2023/06/23 01:42:20;;;;;;;5.00;4.60;;;17.60;1.00;;;;;;5063382;28;20445;-48
2023/06/23 01:44:54;;;;;;;4.83;4.33;;;17.60;1.00;;;;;;5079375;28;20517;-49
2023/06/23 01:47:27;;;;;;;4.87;4.47;;;17.60;1.00;;;;;;5080240;28;20413;-49
2023/06/23 01:49:55;;;;;;;5.10;4.63;;;17.70;1.00;;;;;;5098332;28;20433;-50
2023/06/23 01:52:20;;;;;;;8.00;5.00;;;17.80;1.00;;;;;;5080482;28;20524;-48
2023/06/23 01:54:48;;;;;;;6.37;4.70;;;17.90;99.90;;;;;;5081415;28;20505;-49
2023/06/23 01:57:14;;;;;;;5.40;4.90;;;18.00;99.90;;;;;;5064428;28;20629;-49
2023/06/23 01:59:41;;;;;;;5.30;4.77;;;18.10;99.90;;;;;;5098017;28;20484;-49
2023/06/23 02:02:07;;;;;;;4.90;4.20;;;18.00;99.90;;;;;;5097514;28;20426;-49
2023/06/23 02:04:35;;;;;;;3.23;2.93;;;18.00;99.90;;;;;;5096848;28;20434;-52
2023/06/23 02:07:01;;;;;;;4.37;3.97;;;17.90;99.90;;;;;;5080340;28;20890;-47
2023/06/23 02:09:28;;;;;;;3.57;3.27;;;17.90;99.90;;;;;;5081019;28;20445;-49
2023/06/23 02:11:55;;;;;;;3.67;3.30;;;17.80;99.90;;;;;;5080659;28;20430;-49
2023/06/23 02:14:22;;;;;;;3.53;3.23;;;17.80;99.90;;;;;;5097819;28;20437;-47
2023/06/23 02:16:48;;;;;;;3.37;3.07;;;17.80;99.90;;;;;;5099023;28;20524;-46
2023/06/23 02:19:15;;;;;;;2.97;2.60;;;17.80;99.90;;;;;;5098187;28;20411;-48
2023/06/23 02:21:42;;;;;;;3.80;2.90;;;17.70;99.90;;;;;;5080892;28;20411;-47
2023/06/23 02:24:08;;;;;;;2.77;2.53;;;17.70;99.90;;;;;;5081117;28;20496;-49
2023/06/23 02:26:38;;;;;;;3.13;2.83;;;17.80;99.90;;;;;;5080442;28;20422;-52
2023/06/23 02:29:05;;;;;;;2.43;2.20;;;17.70;99.90;;;;;;5080780;28;20436;-48
2023/06/23 02:31:31;;;;;;;2.37;2.17;;;17.60;99.90;;;;;;5079038;28;20788;-50
2023/06/23 02:33:57;;;;;;;3.03;2.73;;;17.60;99.90;;;;;;5077938;28;20461;-50
2023/06/23 02:36:23;;;;;;;3.03;2.73;;;17.60;99.90;;;;;;5095866;28;20252;-47
2023/06/23 02:38:49;;;;;;;3.53;3.20;;;17.70;99.90;;;;;;5095211;28;20180;-47
2023/06/23 02:41:17;;;;;;;3.37;3.07;;;17.70;99.90;;;;;;5076195;28;20482;-48
2023/06/23 02:43:54;;;;;;;3.97;3.60;;;17.50;99.90;;;;;;5095396;28;20422;-48
2023/06/23 02:46:26;;;;;;;4.13;3.73;;;17.50;99.90;;;;;;5097126;28;20422;-49
2023/06/23 02:48:55;;;;;;;4.53;4.13;;;17.50;99.90;;;;;;5078787;28;20414;-46
2023/06/23 02:51:22;;;;;;;4.73;4.33;;;17.60;74.80;;;;;;5078917;28;20837;-49
2023/06/23 02:53:53;;;;;;;6.10;5.50;;;17.50;99.90;;;;;;5077873;28;20890;-48
2023/06/23 02:56:21;;;;;;;5.47;4.97;;;17.40;1.00;;;;;;5073900;28;20551;-49
2023/06/23 02:58:49;;;;;;;5.53;4.93;;;17.50;1.00;;;;;;5073733;28;20435;-47
2023/06/23 03:01:16;;;;;;;5.63;5.13;;;17.40;1.00;;;;;;5074538;28;20548;-47
2023/06/23 03:03:42;;;;;;;5.97;5.47;;;17.40;1.00;;;;;;5074801;28;20447;-46
2023/06/23 03:06:21;;;;;;;6.20;5.60;;;17.40;1.00;;;;;;5075888;28;20485;-47
2023/06/23 03:08:47;;;;;;;5.97;5.37;;;17.40;1.00;;;;;;5075718;28;20774;-49
2023/06/23 03:11:18;;;;;;;5.77;5.30;;;17.40;1.00;;;;;;5075569;28;20470;-48
2023/06/23 03:13:44;;;;;;;6.70;6.10;;;17.40;1.00;;;;;;5075619;28;20764;-50
2023/06/23 03:16:15;;;;;;;6.17;5.57;;;17.40;1.00;;;;;;5076655;28;20407;-49
2023/06/23 03:18:47;;;;;;;6.60;6.00;;;17.40;1.00;;;;;;5077052;28;20169;-47
2023/06/23 03:21:14;;;;;;;6.70;6.10;;;17.30;1.00;;;;;;5076679;28;20714;-50
2023/06/23 03:23:40;;;;;;;7.13;6.47;;;17.30;1.00;;;;;;5076282;28;20875;-49
2023/06/23 03:26:09;;;;;;;6.90;6.27;;;17.30;1.00;;;;;;5075486;28;20419;-46
2023/06/23 03:28:36;;;;;;;6.77;6.17;;;17.30;1.00;;;;;;5076545;28;20482;-50
2023/06/23 03:31:12;;;;;;;7.37;6.67;;;17.30;1.00;;;;;;5076036;28;20420;-46
2023/06/23 03:33:41;;;;;;;7.47;6.73;;;17.30;1.00;;;;;;5075169;28;20418;-49
2023/06/23 03:36:27;;;;;;;8.50;7.70;;;17.30;1.00;;;;;;5073974;28;20559;-49
2023/06/23 03:39:16;;;;;;;7.63;6.83;;;17.30;1.00;;;;;;5073797;28;20725;-49
2023/06/23 03:41:42;;;;;;;8.10;6.30;;;17.40;1.00;;;;;;5073093;28;20746;-49
2023/06/23 03:44:24;;;;;;;7.40;6.70;;;17.50;1.00;;;;;;5073871;28;20419;-49
2023/06/23 03:46:50;;;;;;;7.00;6.40;;;17.40;1.00;;;;;;5073520;28;20564;-48
2023/06/23 03:49:17;;;;;;;7.90;7.20;;;17.40;1.00;;;;;;5073844;28;20430;-47
2023/06/23 03:51:43;;;;;;;7.40;6.70;;;17.40;1.00;;;;;;5073603;28;20410;-48
2023/06/23 03:54:10;;;;;;;9.20;8.40;;;17.60;1.00;;;;;;5072626;28;20864;-46
2023/06/23 03:56:37;;;;;;;7.63;7.00;;;17.60;99.90;;;;;;5073414;28;20467;-48
2023/06/23 03:59:03;;;;;;;9.27;8.37;;;17.60;1.00;;;;;;5072936;28;20423;-47
2023/06/23 04:01:30;;;;;;;9.30;8.40;;;17.60;99.90;;;;;;5073903;28;20889;-49
2023/06/23 04:03:57;;;;;;;10.30;9.40;;;17.50;1.00;;;;;;5073952;28;20770;-48
2023/06/23 04:06:27;;;;;;;9.80;8.90;;;17.70;99.90;;;;;;5073065;28;20404;-47
2023/06/23 04:08:56;;;;;;;9.70;8.80;;;17.70;99.90;;;;;;5072915;28;20434;-50
2023/06/23 04:11:22;;;;;;;9.20;8.40;;;17.70;99.90;;;;;;5071903;28;20442;-47
2023/06/23 04:13:49;;;;;;;9.60;8.80;;;17.80;99.90;;;;;;5071701;28;20427;-48
2023/06/23 04:16:16;;;;;;;8.80;7.93;;;17.70;99.90;;;;;;5072194;28;20478;-47
2023/06/23 04:18:43;;;;;;;10.57;9.67;;;17.90;99.90;;;;;;5072553;28;20403;-47
2023/06/23 04:21:08;;;;;;;11.40;10.37;;;17.90;1.00;;;;;;5072888;28;20474;-46
2023/06/23 04:23:35;;;;;;;9.50;8.60;;;17.90;1.00;;;;;;5074353;28;20787;-48
2023/06/23 04:26:01;;;;;;;10.27;9.33;;;18.00;1.00;;;;;;5073616;28;20181;-47
2023/06/23 04:28:28;;;;;;;12.07;10.87;;;18.00;1.00;;;;;;5074079;28;20537;-49
2023/06/23 04:30:54;;;;;;;12.00;10.80;;;17.90;1.00;;;;;;5072270;28;20412;-47
2023/06/23 04:33:20;;;;;;;13.27;12.07;;;17.90;1.00;;;;;;5074129;28;20704;-49
2023/06/23 04:35:47;;;;;;;12.03;10.87;;;18.00;99.90;;;;;;5073711;28;20430;-49
2023/06/23 04:38:14;;;;;;;12.40;11.20;;;18.10;99.90;;;;;;5072731;28;20550;-49
2023/06/23 04:40:51;;;;;;;12.10;11.00;;;18.00;1.00;;;;;;5056182;28;20478;-50
2023/06/23 04:43:32;;;;;;;12.07;10.97;;;18.00;99.90;;;;;;5072622;28;20435;-48
2023/06/23 04:45:59;;;;;;;12.80;11.47;;;18.00;99.90;;;;;;5053061;28;20476;-48
2023/06/23 04:48:30;;;;;;;12.87;11.70;;;18.10;99.90;;;;;;5056150;28;20469;-47
2023/06/23 04:50:57;;;;;;;13.40;12.20;;;18.00;99.90;;;;;;5056071;28;20431;-46
2023/06/23 04:53:26;;;;;;;14.23;12.93;;;18.00;99.90;;;;;;5054214;28;20434;-48
2023/06/23 04:55:55;;;;;;;13.63;12.37;;;18.10;99.90;;;;;;5056363;28;20473;-47
2023/06/23 04:58:21;;;;;;;16.60;15.13;;;18.20;99.90;;;;;;5072063;28;20459;-47
2023/06/23 05:00:48;;;;;;;18.00;15.43;;;18.10;1.00;;;;;;5070966;28;20867;-48
2023/06/23 05:03:14;;;;;;;18.40;16.60;;;18.20;1.00;;;;;;5052058;28;20427;-50
2023/06/23 05:05:41;;;;;;;15.90;14.37;;;18.00;1.00;;;;;;5071768;28;20415;-52
2023/06/23 05:08:08;;;;;;;15.57;14.27;;;18.10;99.90;;;;;;5074605;28;20525;-48
2023/06/23 05:10:34;;;;;;;14.00;12.70;;;18.10;1.00;;;;;;5075425;28;20439;-50
2023/06/23 05:13:00;;;;;;;17.10;15.47;;;18.10;99.90;;;;;;5075894;28;20407;-49
2023/06/23 05:15:27;;;;;;;14.07;12.77;;;18.10;1.00;;;;;;5074169;28;20609;-51
2023/06/23 05:17:55;;;;;;;19.27;17.30;;;18.20;99.90;;;;;;5075193;28;20431;-48
2023/06/23 05:20:23;;;;;;;18.10;16.50;;;18.20;1.00;;;;;;5057424;28;20467;-49
2023/06/23 05:22:50;;;;;;;17.47;15.97;;;18.10;1.00;;;;;;5055747;28;20423;-49
2023/06/23 05:25:18;;;;;;;18.07;16.37;;;18.20;1.00;;;;;;5053189;28;20519;-49
2023/06/23 05:27:45;;;;;;;17.07;15.60;;;18.40;1.00;;;;;;5051322;28;20404;-48
2023/06/23 05:30:15;;;;;;;19.60;17.57;;;18.40;1.00;;;;;;5052058;28;20436;-48
2023/06/23 05:32:42;;;;;;;23.27;20.97;;;18.40;99.90;;;;;;5050163;28;20514;-50
2023/06/23 05:35:08;;;;;;;19.87;17.90;;;18.40;99.90;;;;;;5052034;28;20424;-48
2023/06/23 05:37:34;;;;;;;19.93;18.03;;;18.50;99.90;;;;;;5050402;28;20517;-49
2023/06/23 05:40:03;;;;;;;24.57;22.10;;;18.70;99.90;;;;;;5050253;28;20546;-47
2023/06/23 05:42:32;;;;;;;21.60;19.67;;;18.80;99.90;;;;;;5049092;28;20401;-47
2023/06/23 05:45:02;;;;;;;21.83;19.83;;;19.00;99.90;;;;;;5051564;28;20455;-48
2023/06/23 05:47:34;;;;;;;24.77;22.37;;;19.10;1.00;;;;;;5052359;28;20438;-48
2023/06/23 05:50:01;;;;;;;19.47;17.57;;;19.20;1.00;;;;;;5033799;28;20484;-48
2023/06/23 05:52:28;;;;;;;26.87;24.23;;;19.30;99.90;;;;;;5049625;28;20435;-48
2023/06/23 05:54:54;;;;;;;23.93;21.73;;;19.10;1.00;;;;;;5051208;28;20408;-48
2023/06/23 05:57:27;;;;;;;24.20;21.57;;;18.80;99.90;;;;;;5053443;28;20749;-47
2023/06/23 06:00:10;;;;;;;25.67;23.10;;;18.80;1.00;;;;;;5070576;28;20470;-49
2023/06/23 06:02:43;;;;;;;23.17;20.73;;;18.70;1.00;;;;;;5053334;28;20486;-48
2023/06/23 06:05:18;;;;;;;25.77;23.07;;;18.60;99.90;;;;;;5055205;28;20434;-48
2023/06/23 06:07:45;;;;;;;26.37;23.93;;;18.70;1.00;;;;;;5054324;28;20430;-49
2023/06/23 06:10:11;;;;;;;25.57;23.07;;;18.70;1.00;;;;;;5071637;28;20865;-48
2023/06/23 06:12:39;;;;;;;26.27;23.63;;;18.70;99.90;;;;;;5072535;28;20407;-41
2023/06/23 06:15:06;;;;;;;24.93;22.50;;;18.70;1.00;;;;;;5068119;28;20481;-43
2023/06/23 06:17:32;;;;;;;25.60;22.17;;;18.80;99.90;;;;;;5073368;28;20441;-39
2023/06/23 06:20:00;;;;;;;25.30;22.90;;;19.00;99.90;;;;;;5075520;28;20916;-42
2023/06/23 06:22:27;;;;;;;24.60;22.23;;;19.00;1.00;;;;;;5094052;28;20427;-38
2023/06/23 06:24:53;;;;;;;27.13;24.43;;;19.10;1.00;;;;;;5094980;28;20475;-42
2023/06/23 06:27:20;;;;;;;24.80;22.33;;;19.20;99.90;;;;;;5095147;28;20637;-41
2023/06/23 06:29:47;;;;;;;25.47;23.00;;;19.20;99.90;;;;;;5076390;28;20495;-40
2023/06/23 06:32:13;;;;;;;26.70;24.00;;;19.30;99.90;;;;;;5095638;28;20718;-39
2023/06/23 06:34:40;;;;;;;24.10;21.77;;;19.30;1.00;;;;;;5095644;28;20422;-42
2023/06/23 06:37:07;;;;;;;21.13;19.00;;;19.40;1.00;;;;;;5075850;28;20821;-40
2023/06/23 06:39:32;;;;;;;23.57;21.27;;;19.60;99.90;;;;;;5076800;28;20761;-39
2023/06/23 06:41:58;;;;;;;23.33;20.97;;;19.70;1.00;;;;;;5077467;28;20876;-38
2023/06/23 06:44:25;;;;;;;24.37;21.83;;;19.70;1.00;;;;;;5093456;28;20426;-41
2023/06/23 06:46:52;;;;;;;23.37;21.17;;;19.70;1.00;;;;;;5096231;28;20173;-41
2023/06/23 06:49:18;;;;;;;20.60;18.67;;;19.60;1.00;;;;;;5076390;28;20441;-42
2023/06/23 06:51:45;;;;;;;21.83;19.60;;;19.70;1.00;;;;;;5077222;28;20418;-42
2023/06/23 06:54:11;;;;;;;19.27;17.47;;;19.80;1.00;;;;;;5094401;28;20757;-42
2023/06/23 06:56:37;;;;;;;18.97;16.97;;;20.10;99.90;;;;;;5094580;28;20473;-43
2023/06/23 06:59:03;;;;;;;18.67;16.80;;;20.20;61.80;;;;;;5095193;28;20477;-43
2023/06/23 07:01:29;;;;;;;18.30;16.50;;;20.30;1.00;;;;;;5091190;28;20223;-39
2023/06/23 07:03:56;;;;;;;18.80;16.90;;;20.50;1.00;;;;;;5062814;28;20841;-42
2023/06/23 07:06:21;;;;;;;20.00;18.10;;;20.60;1.00;;;;;;5055965;28;20184;-42
2023/06/23 07:08:47;;;;;;;19.13;17.13;;;20.70;99.90;;;;;;5072266;28;20427;-41
2023/06/23 07:11:13;;;;;;;20.37;18.30;;;20.70;99.90;;;;;;5070952;28;20433;-42
2023/06/23 07:13:39;;;;;;;18.30;16.60;;;21.10;99.90;;;;;;5070940;28;20531;-43
2023/06/23 07:16:05;;;;;;;20.00;18.13;;;21.40;99.90;;;;;;5072657;28;20177;-41
2023/06/23 07:18:33;;;;;;;17.67;15.97;;;21.20;99.90;;;;;;5054909;28;20419;-42
2023/06/23 07:21:00;;;;;;;20.00;18.13;;;21.20;99.90;;;;;;5074427;28;20467;-42
2023/06/23 07:23:26;;;;;;;18.60;16.67;;;21.00;99.90;;;;;;5071606;28;20651;-43
2023/06/23 07:25:51;;;;;;;18.53;16.80;;;20.70;99.90;;;;;;5070916;28;20435;-42
2023/06/23 07:28:17;;;;;;;17.20;15.50;;;20.30;99.90;;;;;;5073824;28;20178;-43
2023/06/23 07:30:43;;;;;;;18.73;16.83;;;20.30;99.90;;;;;;5073470;28;20173;-41
2023/06/23 07:33:08;;;;;;;16.60;15.07;;;20.30;99.90;;;;;;5073175;28;20265;-45
2023/06/23 07:35:34;;;;;;;18.00;16.40;;;20.30;99.90;;;;;;5071706;28;20211;-44
2023/06/23 07:38:00;;;;;;;18.40;16.57;;;20.50;99.90;;;;;;5073441;28;20559;-41
2023/06/23 07:40:25;;;;;;;18.60;16.70;;;20.40;99.90;;;;;;5071276;28;20269;-41
2023/06/23 07:42:51;;;;;;;17.27;15.57;;;20.40;99.90;;;;;;5033748;28;20487;-46
2023/06/23 07:45:17;;;;;;;17.43;15.73;;;20.50;99.90;;;;;;5066965;28;20581;-43
2023/06/23 07:47:43;;;;;;;17.67;15.97;;;20.50;99.90;;;;;;5082412;28;20177;-41
2023/06/23 07:50:09;;;;;;;15.97;14.47;;;20.50;99.90;;;;;;5090683;28;20433;-41
2023/06/23 07:52:35;;;;;;;17.77;15.80;;;20.90;99.90;;;;;;5086743;28;20427;-43
2023/06/23 07:55:01;;;;;;;16.93;15.53;;;20.90;99.90;;;;;;5072298;28;20412;-43
2023/06/23 07:57:26;;;;;;;16.30;14.70;;;20.90;99.90;;;;;;5052712;28;20543;-42
2023/06/23 07:59:52;;;;;;;17.80;15.93;;;20.60;99.90;;;;;;5050009;28;20217;-42
2023/06/23 08:02:18;;;;;;;17.03;15.20;;;20.90;99.90;;;;;;5050765;28;20184;-43
2023/06/23 08:04:44;;;;;;;17.10;15.30;;;21.00;99.90;;;;;;5051414;28;20182;-41
2023/06/23 08:07:09;;;;;;;18.37;16.57;;;20.80;99.90;;;;;;5052886;28;20181;-40
2023/06/23 08:09:35;;;;;;;16.83;15.33;;;20.50;99.90;;;;;;5052758;28;20427;-41
2023/06/23 08:12:01;;;;;;;16.73;15.13;;;20.60;99.90;;;;;;5071124;28;20165;-42
2023/06/23 08:14:26;;;;;;;16.90;14.33;;;20.90;99.90;;;;;;5071808;28;20459;-44
2023/06/23 08:16:52;;;;;;;16.47;14.87;;;21.30;99.90;;;;;;5072003;28;20173;-43
2023/06/23 08:19:21;;;;;;;14.73;13.43;;;21.00;99.90;;;;;;5072012;28;20231;-41
2023/06/23 08:21:51;;;;;;;15.93;14.43;;;21.40;98.00;;;;;;5072119;28;20793;-44
2023/06/23 08:24:17;;;;;;;13.13;11.93;;;21.60;30.70;;;;;;5073746;28;20520;-44
2023/06/23 08:26:43;;;;;;;14.30;12.50;;;21.60;22.10;;;;;;5074230;28;20892;-40
2023/06/23 08:29:09;;;;;;;13.87;12.53;;;21.60;3.40;;;;;;5073625;28;20187;-42
2023/06/23 08:31:35;;;;;;;13.30;12.10;;;21.90;1.00;;;;;;5072462;28;20657;-41
2023/06/23 08:34:01;;;;;;;12.20;10.73;;;22.30;1.00;;;;;;5072466;28;20177;-44
2023/06/23 08:36:27;;;;;;;14.83;13.33;;;22.40;1.00;;;;;;5072256;28;20419;-44
2023/06/23 08:38:52;;;;;;;11.50;10.40;;;22.60;1.00;;;;;;5069168;28;20192;-41
2023/06/23 08:41:20;;;;;;;11.33;10.23;;;23.20;1.00;;;;;;5071186;28;20864;-43
2023/06/23 08:43:48;;;;;;;11.30;10.30;;;23.00;1.00;;;;;;5072226;28;20475;-41
2023/06/23 08:46:14;;;;;;;13.37;12.07;;;22.90;1.00;;;;;;5072544;28;20898;-42
2023/06/23 08:48:43;;;;;;;11.80;9.53;;;22.40;1.00;;;;;;5070619;28;20407;-42
2023/06/23 08:51:08;;;;;;;10.47;9.47;;;22.90;1.00;;;;;;5070600;28;20852;-44
2023/06/23 08:53:34;;;;;;;12.03;10.90;;;22.90;1.00;;;;;;5051772;28;20493;-42
2023/06/23 08:56:00;;;;;;;11.53;10.50;;;22.50;1.00;;;;;;5048453;28;20480;-40
2023/06/23 08:58:26;;;;;;;11.10;10.00;;;22.30;1.00;;;;;;5047355;28;20510;-42
2023/06/23 09:00:53;;;;;;;10.80;9.67;;;22.10;1.00;;;;;;5048043;28;20474;-42
2023/06/23 09:03:22;;;;;;;12.90;11.73;;;22.00;1.00;;;;;;5048890;28;20192;-42
2023/06/23 09:05:48;;;;;;;10.90;10.00;;;22.30;1.00;;;;;;5051492;28;20526;-41
2023/06/23 09:08:14;;;;;;;11.07;9.97;;;22.80;1.00;;;;;;5049973;28;20531;-42
2023/06/23 09:10:40;;;;;;;11.97;10.83;;;22.90;1.00;;;;;;5048061;28;20209;-42
2023/06/23 09:13:15;;;;;;;11.17;10.03;;;22.70;1.00;;;;;;5047702;28;20424;-41
2023/06/23 09:15:45;;;;;;;11.10;10.00;;;22.00;1.00;;;;;;5050510;28;20702;-42
2023/06/23 09:18:12;;;;;;;11.30;10.30;;;22.60;1.00;;;;;;5050489;28;20428;-44
2023/06/23 09:20:39;;;;;;;12.07;11.03;;;23.40;1.00;;;;;;5048174;28;20744;-41
2023/06/23 09:23:06;;;;;;;10.50;9.50;;;23.80;1.00;;;;;;5048225;28;20700;-44
2023/06/23 09:25:47;;;;;;;11.20;10.20;;;23.90;1.00;;;;;;5047395;28;20424;-41
2023/06/23 09:28:34;;;;;;;10.70;9.80;;;23.90;1.00;;;;;;5050654;28;20625;-42
2023/06/23 09:31:16;;;;;;;11.13;10.13;;;24.00;1.00;;;;;;5049103;28;20404;-40
2023/06/23 09:33:50;;;;;;;11.27;10.27;;;24.50;1.00;;;;;;5048138;28;20413;-41
2023/06/23 09:36:16;;;;;;;10.90;9.97;;;23.90;1.00;;;;;;5048509;28;20486;-40
2023/06/23 09:38:42;;;;;;;9.20;8.37;;;24.50;1.00;;;;;;5049777;28;20462;-41
2023/06/23 09:41:13;;;;;;;11.97;10.77;;;25.40;1.00;;;;;;5049198;28;20479;-42
2023/06/23 09:43:50;;;;;;;10.37;9.17;;;25.70;1.00;;;;;;5048932;28;20548;-42
2023/06/23 09:46:18;;;;;;;12.20;9.90;;;25.60;1.00;;;;;;5050897;28;20439;-41
2023/06/23 09:48:46;;;;;;;10.67;9.67;;;24.80;1.00;;;;;;5048846;28;20790;-40
2023/06/23 09:51:12;;;;;;;11.17;10.20;;;24.50;1.00;;;;;;5050239;28;20443;-52
2023/06/23 09:53:40;;;;;;;9.63;8.83;;;24.10;1.00;;;;;;5052511;28;20424;-50
2023/06/23 09:56:07;;;;;;;11.87;10.87;;;24.50;1.00;;;;;;5050941;28;20802;-51
2023/06/23 09:58:38;;;;;;;10.87;9.90;;;24.70;1.00;;;;;;5050540;28;20727;-53
2023/06/23 10:01:12;;;;;;;9.50;8.70;;;24.90;1.00;;;;;;5052289;28;20727;-51
2023/06/23 10:03:44;;;;;;;11.10;10.10;;;24.60;1.00;;;;;;5053619;28;20443;-51
2023/06/23 10:06:28;;;;;;;9.23;8.47;;;24.10;1.00;;;;;;5054065;28;20443;-53
2023/06/23 10:08:56;;;;;;;10.23;9.43;;;23.70;1.00;;;;;;5053831;28;20435;-52
2023/06/23 10:11:35;;;;;;;9.87;8.90;;;23.70;1.00;;;;;;5053062;28;20830;-52
2023/06/23 10:14:07;;;;;;;9.77;8.83;;;23.60;1.00;;;;;;5052563;28;20420;-52
2023/06/23 10:16:36;;;;;;;10.70;9.80;;;23.60;1.00;;;;;;5053064;28;20458;-54
2023/06/23 10:19:03;;;;;;;10.13;9.20;;;23.20;1.00;;;;;;5050551;28;20485;-53
2023/06/23 10:21:30;;;;;;;9.80;8.87;;;22.90;1.00;;;;;;5050638;28;20473;-54
2023/06/23 10:24:03;;;;;;;9.27;8.47;;;23.30;1.00;;;;;;5048279;28;20432;-53
2023/06/23 10:26:34;;;;;;;8.70;7.90;;;23.70;1.00;;;;;;5048922;28;20447;-53
2023/06/23 10:29:15;;;;;;;8.50;7.60;;;24.30;1.00;;;;;;5049492;28;20436;-51
2023/06/23 10:31:41;;;;;;;8.93;8.03;;;24.80;1.00;;;;;;5049108;28;20946;-51
2023/06/23 10:34:11;;;;;;;9.00;8.30;;;24.90;1.00;;;;;;5051080;28;20431;-53
2023/06/23 10:36:40;;;;;;;9.57;8.77;;;24.70;1.00;;;;;;5051540;28;20436;-52
2023/06/23 10:39:08;;;;;;;9.57;8.63;;;24.50;1.00;;;;;;5052242;28;20554;-51
2023/06/23 10:41:34;;;;;;;8.50;7.80;;;24.70;1.00;;;;;;5048723;28;20483;-57
2023/06/23 10:44:01;;;;;;;10.13;8.93;;;24.70;1.00;;;;;;5049014;28;20431;-51
2023/06/23 10:46:27;;;;;;;8.60;7.80;;;25.10;1.00;;;;;;5050792;28;20803;-59
2023/06/23 10:48:53;;;;;;;8.80;7.93;;;25.30;1.00;;;;;;5051974;28;20412;-59
2023/06/23 10:51:19;;;;;;;8.07;7.37;;;25.00;1.00;;;;;;5052413;28;20181;-57
2023/06/23 10:54:00;;;;;;;8.73;7.93;;;24.90;1.00;;;;;;5051682;28;20865;-58
2023/06/23 10:56:30;;;;;;;8.97;7.33;;;25.30;1.00;;;;;;5060102;28;20771;-58
2023/06/23 10:58:56;;;;;;;7.53;6.93;;;25.70;1.00;;;;;;5072493;28;20432;-61
2023/06/23 11:01:21;;;;;;;8.93;6.87;;;25.90;1.00;;;;;;5072851;28;20485;-60
2023/06/23 11:03:52;;;;;;;7.03;6.43;;;26.50;1.00;;;;;;5073694;28;20488;-59
2023/06/23 11:06:27;;;;;;;8.20;7.50;;;26.60;1.00;;;;;;5073404;28;20192;-59
2023/06/23 11:08:52;;;;;;;7.87;7.27;;;26.50;1.00;;;;;;5071747;28;20432;-57
2023/06/23 11:11:32;;;;;;;7.60;7.00;;;26.30;1.00;;;;;;5070035;28;20713;-56
2023/06/23 11:13:58;;;;;;;8.17;7.37;;;26.20;1.00;;;;;;5051203;28;20505;-59
2023/06/23 11:16:34;;;;;;;7.43;6.73;;;25.70;1.00;;;;;;5071343;28;20471;-58
2023/06/23 11:19:02;;;;;;;8.13;7.53;;;25.70;1.00;;;;;;5070153;28;20185;-59
2023/06/23 11:21:27;;;;;;;10.10;8.67;;;25.50;1.00;;;;;;5072428;28;20533;-59
2023/06/23 11:24:19;;;;;;;8.50;7.70;;;25.80;1.00;;;;;;5069110;28;20828;-58
2023/06/23 11:27:02;;;;;;;8.30;7.60;;;25.90;1.00;;;;;;5068704;28;20212;-58
2023/06/23 11:29:27;;;;;;;9.23;8.47;;;25.80;1.00;;;;;;5054334;28;20800;-59
2023/06/23 11:32:06;;;;;;;8.00;7.40;;;25.60;1.00;;;;;;5072221;28;20485;-57
2023/06/23 11:34:53;;;;;;;8.00;7.13;;;25.30;1.00;;;;;;5053781;28;20183;-58
2023/06/23 11:37:20;;;;;;;7.83;7.23;;;24.90;1.00;;;;;;5033018;28;20546;-58
2023/06/23 11:39:47;;;;;;;6.50;6.00;;;24.80;1.00;;;;;;5071330;28;20514;-57
2023/06/23 11:42:13;;;;;;;9.07;8.27;;;24.50;1.00;;;;;;5056516;28;20489;-58
2023/06/23 11:44:38;;;;;;;7.17;6.57;;;24.10;1.00;;;;;;5050535;28;20429;-58
2023/06/23 11:47:04;;;;;;;7.57;6.87;;;23.80;1.00;;;;;;5056110;28;20189;-59
2023/06/23 11:49:30;;;;;;;7.97;7.27;;;23.80;1.00;;;;;;5071458;28;20208;-58
2023/06/23 11:52:06;;;;;;;8.73;7.73;;;23.90;1.00;;;;;;5073000;28;20173;-59
2023/06/23 11:54:38;;;;;;;7.50;6.80;;;24.00;1.00;;;;;;5072364;28;20456;-58
2023/06/23 11:57:04;;;;;;;6.77;6.23;;;23.90;1.00;;;;;;5072745;28;20498;-59
2023/06/23 11:59:34;;;;;;;7.47;6.77;;;23.90;1.00;;;;;;5069818;28;20435;-59
2023/06/23 12:02:00;;;;;;;8.23;6.80;;;24.10;1.00;;;;;;5052159;28;20473;-58
2023/06/23 12:04:26;;;;;;;8.07;7.37;;;24.70;1.00;;;;;;5071543;28;20759;-56
2023/06/23 12:06:54;;;;;;;7.93;7.23;;;25.30;1.00;;;;;;5072724;28;20725;-58
2023/06/23 12:09:20;;;;;;;7.53;6.93;;;25.70;1.00;;;;;;5074149;28;20248;-58
2023/06/23 12:11:48;;;;;;;8.13;7.53;;;26.00;1.00;;;;;;5072839;28;20444;-59
2023/06/23 12:14:14;;;;;;;7.73;6.90;;;26.70;1.00;;;;;;5071641;28;20625;-57
2023/06/23 12:16:40;;;;;;;6.67;5.90;;;26.40;1.00;;;;;;5071809;28;20492;-58
2023/06/23 12:19:06;;;;;;;6.60;6.10;;;26.10;1.00;;;;;;5071725;28;20173;-57
2023/06/23 12:21:35;;;;;;;7.20;6.60;;;25.80;1.00;;;;;;5071185;28;20854;-58
2023/06/23 12:24:01;;;;;;;6.47;5.87;;;25.60;1.00;;;;;;5070481;28;20177;-58
2023/06/23 12:26:27;;;;;;;7.70;7.00;;;25.30;1.00;;;;;;5057944;28;20738;-57
2023/06/23 12:29:08;;;;;;;7.43;6.83;;;25.00;1.00;;;;;;5069078;28;20533;-57
2023/06/23 12:31:33;;;;;;;7.73;7.13;;;25.10;1.00;;;;;;5048103;28;20435;-59
2023/06/23 12:34:01;;;;;;;7.17;6.63;;;25.40;1.00;;;;;;5050584;28;20420;-59
2023/06/23 12:36:26;;;;;;;7.73;7.03;;;25.80;1.00;;;;;;5051000;28;20186;-58
2023/06/23 12:38:54;;;;;;;6.97;6.37;;;26.10;1.00;;;;;;5052539;28;20424;-59
2023/06/23 12:41:23;;;;;;;6.33;5.83;;;26.60;1.00;;;;;;5034902;28;20422;-59
2023/06/23 12:43:53;;;;;;;5.90;5.40;;;26.90;1.00;;;;;;5051810;28;20432;-59
2023/06/23 12:46:23;;;;;;;8.13;6.20;;;27.60;1.00;;;;;;5053179;28;20424;-57
2023/06/23 12:48:49;;;;;;;6.33;5.83;;;28.00;1.00;;;;;;5034872;28;20412;-58
2023/06/23 12:51:15;;;;;;;6.63;6.13;;;28.40;1.00;;;;;;5034226;28;20880;-59